createdAt,value
2022-08-24T00:00:26.136Z,97946.25
2022-08-24T00:02:52.853Z,97951.84
2022-08-24T00:05:21.454Z,97941.44
2022-08-24T00:07:50.079Z,97931.34
2022-08-24T00:10:18.379Z,97951.63
2022-08-24T00:12:48.272Z,97953.47
2022-08-24T00:15:16.383Z,97942.69
2022-08-24T00:17:43.089Z,97937.56
2022-08-24T00:20:11.456Z,97950.91
2022-08-24T00:22:39.043Z,97936.72
2022-08-24T00:25:06.445Z,97943.59
2022-08-24T00:27:33.214Z,97924.06
2022-08-24T00:30:00.028Z,97935.31
2022-08-24T00:32:26.687Z,97946.44
2022-08-24T00:34:58.245Z,97935.75
2022-08-24T00:37:28.763Z,97954.38
2022-08-24T00:39:57.179Z,97950.50
2022-08-24T00:42:24.517Z,97946.72
2022-08-24T00:44:52.162Z,97924.34
2022-08-24T00:47:24.101Z,97950.00
2022-08-24T00:49:55.967Z,97945.09
2022-08-24T00:52:38.728Z,97948.22
2022-08-24T00:55:10.143Z,97948.91
2022-08-24T00:57:43.322Z,97920.25
2022-08-24T01:00:24.696Z,97939.72
2022-08-24T01:02:55.922Z,97937.84
2022-08-24T01:05:22.807Z,97933.25
2022-08-24T01:07:50.776Z,97946.50
2022-08-24T01:10:21.221Z,97924.94
2022-08-24T01:13:01.064Z,97942.16
2022-08-24T01:15:29.560Z,97918.63
2022-08-24T01:18:15.582Z,97918.84
2022-08-24T01:20:46.139Z,97941.78
2022-08-24T01:23:28.121Z,97940.03
2022-08-24T01:26:03.118Z,97937.44
2022-08-24T01:28:30.397Z,97931.06
2022-08-24T01:30:58.792Z,97911.97
2022-08-24T01:33:32.953Z,97939.59
2022-08-24T01:36:11.623Z,97934.47
2022-08-24T01:38:38.231Z,97921.03
2022-08-24T01:41:04.975Z,97902.06
2022-08-24T01:43:31.659Z,97941.78
2022-08-24T01:46:03.799Z,97923.72
2022-08-24T01:48:31.044Z,97942.22
2022-08-24T01:50:57.794Z,97945.94
2022-08-24T01:53:25.012Z,97937.31
2022-08-24T01:55:51.925Z,97920.50
2022-08-24T01:58:18.660Z,97942.66
2022-08-24T02:00:45.477Z,97926.69
2022-08-24T02:03:12.200Z,97945.13
2022-08-24T02:05:38.999Z,97950.34
2022-08-24T02:08:06.389Z,97945.63
2022-08-24T02:10:33.110Z,97946.31
2022-08-24T02:12:59.966Z,97900.69
2022-08-24T02:15:32.158Z,97937.50
2022-08-24T02:18:00.082Z,97947.94
2022-08-24T02:20:27.203Z,97920.94
2022-08-24T02:22:54.501Z,97911.94
2022-08-24T02:25:24.454Z,97903.16
2022-08-24T02:27:51.140Z,97933.41
2022-08-24T02:30:18.153Z,97919.44
2022-08-24T02:32:44.828Z,97928.97
2022-08-24T02:35:11.856Z,97931.16
2022-08-24T02:37:43.798Z,97911.00
2022-08-24T02:40:12.705Z,97945.53
2022-08-24T02:42:39.624Z,97939.16
2022-08-24T02:45:06.892Z,97944.97
2022-08-24T02:47:38.693Z,97944.34
2022-08-24T02:50:08.588Z,97945.84
2022-08-24T02:52:37.647Z,97936.59
2022-08-24T02:55:06.261Z,97936.72
2022-08-24T02:57:32.882Z,97933.09
2022-08-24T02:59:59.812Z,97919.94
2022-08-24T03:02:27.147Z,97941.28
2022-08-24T03:04:56.679Z,97939.03
2022-08-24T03:07:25.485Z,97942.94
2022-08-24T03:09:52.077Z,97937.19
2022-08-24T03:12:18.657Z,97938.28
2022-08-24T03:14:45.444Z,97918.19
2022-08-24T03:17:12.153Z,97939.53
2022-08-24T03:19:38.838Z,97928.59
2022-08-24T03:22:05.681Z,97933.19
2022-08-24T03:24:32.491Z,97924.97
2022-08-24T03:26:59.556Z,97908.94
2022-08-24T03:29:26.400Z,97909.97
2022-08-24T03:31:52.988Z,97909.72
2022-08-24T03:34:21.057Z,97890.25
2022-08-24T03:36:47.625Z,97906.03
2022-08-24T03:39:15.621Z,97907.94
2022-08-24T03:41:42.850Z,97897.06
2022-08-24T03:44:09.702Z,97909.38
2022-08-24T03:46:37.721Z,97920.19
2022-08-24T03:49:08.806Z,97910.97
2022-08-24T03:51:37.606Z,97910.69
2022-08-24T03:54:06.060Z,97914.31
2022-08-24T03:56:32.834Z,97919.59
2022-08-24T03:58:59.591Z,97891.19
2022-08-24T04:01:26.962Z,97909.94
2022-08-24T04:03:54.210Z,97914.56
2022-08-24T04:06:21.979Z,97897.50
2022-08-24T04:08:48.935Z,97914.06
2022-08-24T04:11:23.001Z,97898.03
2022-08-24T04:13:53.338Z,97900.72
2022-08-24T04:16:21.427Z,97886.34
2022-08-24T04:18:49.167Z,97907.91
2022-08-24T04:21:16.859Z,97909.25
2022-08-24T04:23:46.885Z,97889.03
2022-08-24T04:26:16.067Z,97907.72
2022-08-24T04:28:42.833Z,97897.97
2022-08-24T04:31:09.545Z,97878.44
2022-08-24T04:33:36.409Z,97898.47
2022-08-24T04:36:08.029Z,97890.06
2022-08-24T04:38:35.483Z,97891.78
2022-08-24T04:41:05.793Z,97917.13
2022-08-24T04:43:34.811Z,97919.88
2022-08-24T04:46:05.379Z,97909.91
2022-08-24T04:48:32.793Z,97923.66
2022-08-24T04:51:05.827Z,97923.66
2022-08-24T04:53:33.722Z,97900.72
2022-08-24T04:56:05.632Z,97917.22
2022-08-24T04:58:32.738Z,97933.00
2022-08-24T05:01:02.733Z,97919.28
2022-08-24T05:03:30.001Z,97939.84
2022-08-24T05:05:56.798Z,97941.69
2022-08-24T05:08:29.720Z,97917.81
2022-08-24T05:10:56.659Z,97914.91
2022-08-24T05:13:23.836Z,97944.06
2022-08-24T05:15:50.856Z,97940.75
2022-08-24T05:18:35.501Z,97896.72
2022-08-24T05:21:02.643Z,97917.72
2022-08-24T05:23:31.204Z,97904.81
2022-08-24T05:26:14.169Z,97944.38
2022-08-24T05:28:41.317Z,97926.41
2022-08-24T05:31:13.866Z,97949.66
2022-08-24T05:33:41.516Z,97936.03
2022-08-24T05:36:20.713Z,97952.69
2022-08-24T05:38:49.213Z,97951.78
2022-08-24T05:41:17.049Z,97948.66
2022-08-24T05:43:44.394Z,97951.78
2022-08-24T05:46:11.180Z,97958.00
2022-08-24T05:48:38.235Z,97947.06
2022-08-24T05:51:06.358Z,97944.69
2022-08-24T05:53:33.571Z,97947.63
2022-08-24T05:56:05.994Z,97948.53
2022-08-24T05:58:32.620Z,97954.75
2022-08-24T06:01:05.711Z,97955.84
2022-08-24T06:03:32.236Z,97949.81
2022-08-24T06:06:01.193Z,97957.28
2022-08-24T06:08:27.835Z,97951.91
2022-08-24T06:10:54.365Z,97937.16
2022-08-24T06:13:21.355Z,97954.88
2022-08-24T06:16:11.032Z,97933.41
2022-08-24T06:18:35.563Z,97958.84
2022-08-24T06:21:09.079Z,97955.63
2022-08-24T06:23:36.445Z,97954.31
2022-08-24T06:26:23.477Z,97962.69
2022-08-24T06:28:50.208Z,97945.06
2022-08-24T06:31:16.962Z,97949.28
2022-08-24T06:33:43.643Z,97950.25
2022-08-24T06:36:10.499Z,97932.38
2022-08-24T06:38:37.663Z,97943.81
2022-08-24T06:41:04.877Z,97952.00
2022-08-24T06:43:33.941Z,97945.47
2022-08-24T06:46:04.411Z,97976.16
2022-08-24T06:48:32.444Z,97963.88
2022-08-24T06:51:00.297Z,97975.38
2022-08-24T06:53:27.678Z,97964.78
2022-08-24T06:56:00.951Z,97966.66
2022-08-24T06:58:32.469Z,97970.31
2022-08-24T07:01:10.039Z,97970.41
2022-08-24T07:03:36.663Z,97962.88
2022-08-24T07:06:04.716Z,97963.91
2022-08-24T07:08:31.541Z,97955.03
2022-08-24T07:10:58.579Z,97953.94
2022-08-24T07:13:25.577Z,97971.38
2022-08-24T07:15:53.133Z,97972.28
2022-08-24T07:18:20.969Z,97972.44
2022-08-24T07:20:53.187Z,97962.03
2022-08-24T07:23:27.335Z,97935.53
2022-08-24T07:26:22.867Z,97924.41
2022-08-24T07:28:56.188Z,97940.38
2022-08-24T07:31:22.846Z,97941.00
2022-08-24T07:33:49.602Z,97937.16
2022-08-24T07:36:22.625Z,97959.31
2022-08-24T07:38:54.039Z,97952.63
2022-08-24T07:41:56.219Z,97962.06
2022-08-24T07:44:16.799Z,97957.69
2022-08-24T07:46:44.052Z,97945.75
2022-08-24T07:49:29.442Z,97943.88
2022-08-24T07:51:59.466Z,97963.63
2022-08-24T07:54:31.592Z,97959.91
2022-08-24T07:57:06.462Z,97954.13
2022-08-24T07:59:34.659Z,97962.09
2022-08-24T08:02:01.533Z,97967.03
2022-08-24T08:04:28.158Z,97964.47
2022-08-24T08:09:21.535Z,97954.06
2022-08-24T08:11:48.981Z,97952.44
2022-08-24T08:14:15.622Z,97956.97
2022-08-24T08:16:42.429Z,97960.75
2022-08-24T08:19:10.506Z,97942.41
2022-08-24T08:22:10.021Z,97956.69
2022-08-24T08:24:43.790Z,97949.41
2022-08-24T08:27:11.867Z,97951.59
2022-08-24T08:29:40.578Z,97943.69
2022-08-24T08:32:17.002Z,97945.56
2022-08-24T08:34:44.395Z,97952.03
2022-08-24T08:37:11.583Z,97948.91
2022-08-24T08:39:41.756Z,97947.88
2022-08-24T08:42:32.473Z,97950.47
2022-08-24T08:45:26.616Z,97939.03
2022-08-24T08:50:35.529Z,97949.38
2022-08-24T08:53:27.698Z,97925.91
2022-08-24T08:56:23.747Z,97942.41
2022-08-24T08:59:25.080Z,97936.13
2022-08-24T09:02:14.488Z,97934.72
2022-08-24T09:04:43.621Z,97937.75
2022-08-24T09:07:49.401Z,97936.59
2022-08-24T09:10:27.612Z,97933.66
2022-08-24T09:13:11.909Z,97932.72
2022-08-24T09:16:10.706Z,97941.69
2022-08-24T09:18:44.329Z,97946.06
2022-08-24T09:21:20.037Z,97939.88
2022-08-24T09:24:04.425Z,97954.72
2022-08-24T09:27:07.699Z,97953.69
2022-08-24T09:29:34.730Z,97953.88
2022-08-24T09:35:53.919Z,97943.44
2022-08-24T09:38:44.830Z,97943.63
2022-08-24T09:41:26.576Z,97941.03
2022-08-24T09:44:25.587Z,97925.84
2022-08-24T09:47:04.118Z,97937.00
2022-08-24T09:50:01.051Z,97928.00
2022-08-24T09:52:45.949Z,97926.88
2022-08-24T09:55:46.577Z,97922.84
2022-08-24T09:58:20.963Z,97916.47
2022-08-24T10:01:02.235Z,97919.28
2022-08-24T10:03:41.348Z,97915.72
2022-08-24T10:06:45.250Z,97915.09
2022-08-24T10:09:41.791Z,97918.59
2022-08-24T10:12:47.247Z,97906.69
2022-08-24T10:15:22.616Z,97910.25
2022-08-24T10:17:58.301Z,97908.81
2022-08-24T10:20:39.365Z,97902.88
2022-08-24T10:23:20.934Z,97901.94
2022-08-24T10:26:04.134Z,97906.34
2022-08-24T10:28:52.320Z,97899.19
2022-08-24T10:31:27.029Z,97914.38
2022-08-24T10:34:03.850Z,97897.00
2022-08-24T10:36:33.551Z,97909.47
2022-08-24T10:39:45.493Z,97904.84
2022-08-24T10:42:49.579Z,97903.47
2022-08-24T10:45:35.207Z,97895.78
2022-08-24T10:48:26.704Z,97902.03
2022-08-24T10:51:15.996Z,97886.06
2022-08-24T10:53:49.620Z,97888.16
2022-08-24T10:56:36.139Z,97882.44
2022-08-24T10:59:16.608Z,97893.88
2022-08-24T11:02:19.436Z,97881.94
2022-08-24T11:04:56.016Z,97886.31
2022-08-24T11:07:22.655Z,97872.31
2022-08-24T11:09:53.367Z,97879.75
2022-08-24T11:12:23.816Z,97877.72
2022-08-24T11:14:50.649Z,97875.97
2022-08-24T11:17:21.379Z,97866.84
2022-08-24T11:19:49.879Z,97869.53
2022-08-24T11:22:28.974Z,97864.41
2022-08-24T11:25:00.130Z,97862.88
2022-08-24T11:27:52.077Z,97858.28
2022-08-24T11:30:18.590Z,97863.25
2022-08-24T11:32:58.679Z,97860.72
2022-08-24T11:35:33.475Z,97847.97
2022-08-24T11:38:16.157Z,97846.31
2022-08-24T11:40:57.617Z,97839.75
2022-08-24T11:43:46.032Z,97842.19
2022-08-24T11:46:53.606Z,97841.56
2022-08-24T11:49:42.637Z,97836.22
2022-08-24T11:52:20.124Z,97836.22
2022-08-24T11:54:53.664Z,97829.69
2022-08-24T11:57:22.906Z,97831.38
2022-08-24T12:00:02.336Z,97821.50
2022-08-24T12:02:59.293Z,97825.44
2022-08-24T12:06:10.434Z,97825.47
2022-08-24T12:08:51.030Z,97824.91
2022-08-24T12:11:42.337Z,97819.38
2022-08-24T12:14:33.436Z,97824.59
2022-08-24T12:17:03.088Z,97818.44
2022-08-24T12:19:40.624Z,97814.41
2022-08-24T12:22:10.071Z,97819.28
2022-08-24T12:25:00.929Z,97815.81
2022-08-24T12:27:34.452Z,97813.78
2022-08-24T12:30:08.042Z,97807.06
2022-08-24T12:33:00.756Z,97802.03
2022-08-24T12:35:36.804Z,97805.88
2022-08-24T12:38:33.727Z,97799.69
2022-08-24T12:41:17.854Z,97798.88
2022-08-24T12:43:58.943Z,97794.66
2022-08-24T12:46:28.849Z,97789.97
2022-08-24T12:49:18.189Z,97785.22
2022-08-24T12:51:54.109Z,97788.13
2022-08-24T12:54:28.712Z,97788.44
2022-08-24T12:57:25.395Z,97769.38
2022-08-24T12:59:57.698Z,97781.06
2022-08-24T13:02:26.357Z,97777.28
2022-08-24T13:04:53.720Z,97781.75
2022-08-24T13:07:23.371Z,97776.22
2022-08-24T13:10:15.850Z,97776.66
2022-08-24T13:12:43.448Z,97776.13
2022-08-24T13:15:31.205Z,97776.53
2022-08-24T13:18:20.914Z,97772.31
2022-08-24T13:20:50.251Z,97768.72
2022-08-24T13:23:18.886Z,97769.22
2022-08-24T13:25:48.288Z,97763.13
2022-08-24T13:28:20.933Z,97755.44
2022-08-24T13:30:56.418Z,97760.50
2022-08-24T13:33:47.840Z,97762.00
2022-08-24T13:36:29.744Z,97771.09
2022-08-24T13:39:15.612Z,97759.00
2022-08-24T13:41:49.319Z,97762.22
2022-08-24T13:44:57.818Z,97756.50
2022-08-24T13:47:33.506Z,97753.16
2022-08-24T13:50:34.327Z,97753.91
2022-08-24T13:53:38.395Z,97743.44
2022-08-24T13:56:26.894Z,97749.16
2022-08-24T13:59:11.508Z,97743.75
2022-08-24T14:02:21.251Z,97744.78
2022-08-24T14:05:19.372Z,97743.84
2022-08-24T14:07:56.952Z,97736.81
2022-08-24T14:10:53.744Z,97745.06
2022-08-24T14:13:32.779Z,97738.69
2022-08-24T14:16:29.995Z,97744.66
2022-08-24T14:19:11.835Z,97740.19
2022-08-24T14:21:53.064Z,97729.88
2022-08-24T14:24:30.599Z,97741.44
2022-08-24T14:27:05.413Z,97731.88
2022-08-24T14:29:35.471Z,97737.19
2022-08-24T14:32:12.027Z,97733.25
2022-08-24T14:34:41.952Z,97731.63
2022-08-24T14:37:14.683Z,97731.00
2022-08-24T14:40:29.234Z,97725.53
2022-08-24T14:43:34.322Z,97724.59
2022-08-24T14:46:24.226Z,97730.69
2022-08-24T14:49:18.239Z,97727.56
2022-08-24T14:52:03.615Z,97726.47
2022-08-24T14:54:39.016Z,97727.31
2022-08-24T14:57:22.431Z,97729.03
2022-08-24T15:00:04.903Z,97728.31
2022-08-24T15:02:43.573Z,97700.84
2022-08-24T15:05:13.171Z,97723.03
2022-08-24T15:07:40.089Z,97715.59
2022-08-24T15:10:14.947Z,97708.25
2022-08-24T15:12:51.745Z,97707.31
2022-08-24T15:15:23.881Z,97718.25
2022-08-24T15:18:18.244Z,97718.09
2022-08-24T15:21:18.647Z,97730.09
2022-08-24T15:24:09.982Z,97715.69
2022-08-24T15:26:56.791Z,97720.06
2022-08-24T15:29:27.128Z,97704.13
2022-08-24T15:31:59.437Z,97706.13
2022-08-24T15:34:48.935Z,97702.13
2022-08-24T15:37:25.313Z,97720.78
2022-08-24T15:39:52.064Z,97708.00
2022-08-24T15:42:18.793Z,97706.84
2022-08-24T15:44:49.481Z,97706.56
2022-08-24T15:47:28.347Z,97708.84
2022-08-24T15:50:02.030Z,97719.38
2022-08-24T15:52:40.788Z,97712.78
2022-08-24T15:55:19.652Z,97716.59
2022-08-24T15:57:46.312Z,97699.00
2022-08-24T16:00:44.584Z,97713.50
2022-08-24T16:03:45.611Z,97713.38
2022-08-24T16:06:24.475Z,97707.66
2022-08-24T16:09:20.535Z,97707.34
2022-08-24T16:12:06.156Z,97703.44
2022-08-24T16:14:47.004Z,97703.53
2022-08-24T16:17:26.606Z,97704.50
2022-08-24T16:20:06.274Z,97701.75
2022-08-24T16:22:39.262Z,97679.22
2022-08-24T16:25:13.083Z,97693.28
2022-08-24T16:28:32.775Z,97698.00
2022-08-24T16:31:07.845Z,97693.19
2022-08-24T16:33:43.788Z,97692.09
2022-08-24T16:36:18.028Z,97682.72
2022-08-24T16:38:51.876Z,97673.28
2022-08-24T16:41:21.406Z,97682.69
2022-08-24T16:43:49.036Z,97691.53
2022-08-24T16:46:21.096Z,97681.19
2022-08-24T16:48:47.839Z,97694.94
2022-08-24T16:51:14.477Z,97689.25
2022-08-24T16:53:41.030Z,97685.06
2022-08-24T16:56:14.730Z,97679.72
2022-08-24T16:58:43.176Z,97689.38
2022-08-24T17:01:09.775Z,97684.00
2022-08-24T17:03:38.299Z,97667.81
2022-08-24T17:06:05.341Z,97671.69
2022-08-24T17:08:32.015Z,97670.09
2022-08-24T17:10:58.561Z,97675.09
2022-08-24T17:13:48.554Z,97681.56
2022-08-24T17:16:12.986Z,97660.75
2022-08-24T17:18:40.069Z,97671.94
2022-08-24T17:21:06.716Z,97675.91
2022-08-24T17:23:34.737Z,97678.25
2022-08-24T17:26:06.878Z,97682.09
2022-08-24T17:28:39.943Z,97685.44
2022-08-24T17:31:06.677Z,97676.84
2022-08-24T17:33:33.233Z,97673.91
2022-08-24T17:36:00.205Z,97686.22
2022-08-24T17:38:30.316Z,97662.22
2022-08-24T17:40:57.061Z,97679.94
2022-08-24T17:46:15.183Z,97689.63
2022-08-24T17:48:45.698Z,97694.19
2022-08-24T17:51:13.621Z,97691.16
2022-08-24T17:53:40.806Z,97688.19
2022-08-24T17:56:11.100Z,97691.44
2022-08-24T17:58:57.598Z,97700.81
2022-08-24T18:01:25.000Z,97700.06
2022-08-24T18:03:51.840Z,97684.19
2022-08-24T18:06:21.285Z,97686.59
2022-08-24T18:08:48.460Z,97711.19
2022-08-24T18:11:15.397Z,97707.09
2022-08-24T18:13:42.436Z,97711.66
2022-08-24T18:16:15.578Z,97707.66
2022-08-24T18:18:42.769Z,97711.94
2022-08-24T18:21:09.326Z,97712.69
2022-08-24T18:23:37.246Z,97710.50
2022-08-24T18:26:12.564Z,97707.47
2022-08-24T18:28:39.153Z,97722.84
2022-08-24T18:31:09.643Z,97718.69
2022-08-24T18:33:36.213Z,97724.31
2022-08-24T18:36:02.942Z,97713.84
2022-08-24T18:38:29.523Z,97723.16
2022-08-24T18:40:56.175Z,97724.09
2022-08-24T18:43:24.137Z,97720.38
2022-08-24T18:45:52.191Z,97731.00
2022-08-24T18:48:19.220Z,97720.53
2022-08-24T18:50:45.906Z,97734.69
2022-08-24T18:53:16.196Z,97724.38
2022-08-24T18:55:46.139Z,97721.19
2022-08-24T18:58:13.573Z,97734.81
2022-08-24T19:00:41.857Z,97724.00
2022-08-24T19:03:11.220Z,97729.16
2022-08-24T19:05:39.464Z,97733.50
2022-08-24T19:08:06.662Z,97743.56
2022-08-24T19:10:36.436Z,97730.59
2022-08-24T19:13:08.234Z,97734.38
2022-08-24T19:15:39.634Z,97733.81
2022-08-24T19:18:11.614Z,97730.25
2022-08-24T19:20:48.408Z,97735.91
2022-08-24T19:23:36.108Z,97742.44
2022-08-24T19:26:04.117Z,97728.84
2022-08-24T19:28:31.576Z,97745.66
2022-08-24T19:31:00.798Z,97740.16
2022-08-24T19:33:33.784Z,97725.97
2022-08-24T19:36:00.536Z,97743.34
2022-08-24T19:38:27.113Z,97716.44
2022-08-24T19:40:57.021Z,97728.31
2022-08-24T19:43:27.559Z,97743.75
2022-08-24T19:46:08.551Z,97745.34
2022-08-24T19:48:39.571Z,97750.47
2022-08-24T19:51:10.118Z,97731.13
2022-08-24T19:53:42.927Z,97748.28
2022-08-24T19:56:09.915Z,97737.84
2022-08-24T19:58:51.320Z,97747.81
2022-08-24T20:01:26.406Z,97749.91
2022-08-24T20:03:53.755Z,97755.88
2022-08-24T20:06:23.546Z,97767.22
2022-08-24T20:08:51.878Z,97744.97
2022-08-24T20:11:19.086Z,97750.09
2022-08-24T20:13:47.410Z,97733.72
2022-08-24T20:16:18.501Z,97752.41
2022-08-24T20:18:45.950Z,97759.16
2022-08-24T20:21:16.417Z,97765.63
2022-08-24T20:23:46.246Z,97761.19
2022-08-24T20:26:15.551Z,97752.03
2022-08-24T20:28:48.056Z,97763.63
2022-08-24T20:31:15.636Z,97758.72
2022-08-24T20:33:42.387Z,97740.78
2022-08-24T20:36:33.950Z,97754.88
2022-08-24T20:39:01.935Z,97745.91
2022-08-24T20:41:28.983Z,97748.81
2022-08-24T20:43:58.164Z,97753.44
2022-08-24T20:46:26.874Z,97750.13
2022-08-24T20:48:55.864Z,97755.44
2022-08-24T20:51:25.793Z,97755.66
2022-08-24T20:53:52.446Z,97747.53
2022-08-24T20:56:31.030Z,97746.47
2022-08-24T20:58:58.096Z,97742.72
2022-08-24T21:01:24.945Z,97729.03
2022-08-24T21:03:51.771Z,97740.22
2022-08-24T21:06:19.315Z,97720.88
2022-08-24T21:08:48.427Z,97740.72
2022-08-24T21:11:19.121Z,97744.41
2022-08-24T21:13:45.681Z,97746.78
2022-08-24T21:16:17.938Z,97731.56
2022-08-24T21:18:46.998Z,97743.72
2022-08-24T21:21:16.469Z,97729.38
2022-08-24T21:23:43.096Z,97725.31
2022-08-24T21:26:11.956Z,97744.09
2022-08-24T21:28:41.994Z,97731.75
2022-08-24T21:31:09.143Z,97732.50
2022-08-24T21:33:54.061Z,97745.19
2022-08-24T21:36:23.927Z,97743.44
2022-08-24T21:38:53.483Z,97762.44
2022-08-24T21:41:20.511Z,97746.56
2022-08-24T21:43:47.056Z,97739.38
2022-08-24T21:46:14.045Z,97738.47
2022-08-24T21:48:40.653Z,97755.06
2022-08-24T21:51:07.259Z,97740.38
2022-08-24T21:53:33.841Z,97744.88
2022-08-24T21:56:01.781Z,97750.97
2022-08-24T21:58:28.738Z,97746.09
2022-08-24T22:00:59.025Z,97733.44
2022-08-24T22:03:37.467Z,97729.59
2022-08-24T22:06:08.697Z,97755.81
2022-08-24T22:08:36.571Z,97733.31
2022-08-24T22:11:03.477Z,97744.56
2022-08-24T22:13:30.018Z,97745.88
2022-08-24T22:15:56.623Z,97750.53
2022-08-24T22:18:23.199Z,97768.34
2022-08-24T22:20:49.800Z,97764.72
2022-08-24T22:23:18.572Z,97774.19
2022-08-24T22:25:45.129Z,97757.94
2022-08-24T22:28:11.691Z,97766.09
2022-08-24T22:30:38.243Z,97773.91
2022-08-24T22:33:05.225Z,97769.91
2022-08-24T22:35:31.986Z,97766.72
2022-08-24T22:38:09.412Z,97764.97
2022-08-24T22:40:36.866Z,97769.19
2022-08-24T22:43:04.193Z,97760.47
2022-08-24T22:45:30.838Z,97766.94
2022-08-24T22:47:57.413Z,97765.69
2022-08-24T22:50:24.008Z,97765.81
2022-08-24T22:52:50.613Z,97772.03
2022-08-24T22:55:17.211Z,97756.84
2022-08-24T22:57:43.727Z,97758.56
2022-08-24T23:00:15.055Z,97758.34
2022-08-24T23:02:43.953Z,97754.81
2022-08-24T23:05:10.601Z,97740.34
2022-08-24T23:07:37.197Z,97741.31
2022-08-24T23:10:07.551Z,97757.88
2022-08-24T23:12:34.137Z,97753.81
2022-08-24T23:15:00.695Z,97752.88
2022-08-24T23:17:27.297Z,97759.34
2022-08-24T23:20:00.001Z,97767.97
2022-08-24T23:22:29.375Z,97759.75
2022-08-24T23:24:56.129Z,97748.09
2022-08-24T23:27:22.841Z,97741.53
2022-08-24T23:29:49.547Z,97757.69
2022-08-24T23:32:18.294Z,97750.81
2022-08-24T23:34:46.395Z,97743.00
2022-08-24T23:37:13.892Z,97744.38
2022-08-24T23:39:40.428Z,97752.25
2022-08-24T23:42:07.250Z,97746.13
2022-08-24T23:44:34.370Z,97749.06
2022-08-24T23:47:01.305Z,97756.56
2022-08-24T23:49:29.736Z,97738.31
2022-08-24T23:51:57.213Z,97744.84
2022-08-24T23:54:27.977Z,97731.19
2022-08-24T23:56:55.664Z,97721.72
2022-08-24T23:59:27.978Z,97737.59
